sensor_id;sensor_type;location;lat;lon;timestamp;P1;durP1;ratioP1;P2;durP2;ratioP2
75156;SDS011;63736;50.076;8.198;2022-12-29T00:01:33;124.33;;;55.73;;
75156;SDS011;63736;50.076;8.198;2022-12-29T00:03:59;118.82;;;54.00;;
75156;SDS011;63736;50.076;8.198;2022-12-29T00:06:24;116.53;;;54.07;;
75156;SDS011;63736;50.076;8.198;2022-12-29T00:08:50;127.40;;;56.87;;
75156;SDS011;63736;50.076;8.198;2022-12-29T00:11:16;124.80;;;56.00;;
75156;SDS011;63736;50.076;8.198;2022-12-29T00:13:43;122.45;;;55.20;;
75156;SDS011;63736;50.076;8.198;2022-12-29T00:16:27;142.67;;;59.00;;
75156;SDS011;63736;50.076;8.198;2022-12-29T00:18:53;144.10;;;60.05;;
75156;SDS011;63736;50.076;8.198;2022-12-29T00:21:19;138.73;;;59.63;;
75156;SDS011;63736;50.076;8.198;2022-12-29T00:24:05;131.68;;;57.40;;
75156;SDS011;63736;50.076;8.198;2022-12-29T00:26:53;126.68;;;56.58;;
75156;SDS011;63736;50.076;8.198;2022-12-29T00:29:40;128.15;;;56.15;;
75156;SDS011;63736;50.076;8.198;2022-12-29T00:32:24;128.75;;;57.00;;
75156;SDS011;63736;50.076;8.198;2022-12-29T00:35:09;124.73;;;56.47;;
75156;SDS011;63736;50.076;8.198;2022-12-29T00:37:40;110.18;;;53.03;;
75156;SDS011;63736;50.076;8.198;2022-12-29T00:40:27;101.65;;;51.40;;
75156;SDS011;63736;50.076;8.198;2022-12-29T00:43:11;102.65;;;51.65;;
75156;SDS011;63736;50.076;8.198;2022-12-29T00:45:55;104.13;;;52.80;;
75156;SDS011;63736;50.076;8.198;2022-12-29T00:48:20;93.20;;;49.03;;
75156;SDS011;63736;50.076;8.198;2022-12-29T00:51:05;80.00;;;45.57;;
75156;SDS011;63736;50.076;8.198;2022-12-29T00:53:31;76.40;;;43.80;;
75156;SDS011;63736;50.076;8.198;2022-12-29T00:55:56;64.87;;;41.43;;
75156;SDS011;63736;50.076;8.198;2022-12-29T00:58:22;62.43;;;39.77;;
75156;SDS011;63736;50.076;8.198;2022-12-29T01:00:47;60.07;;;39.23;;
75156;SDS011;63736;50.076;8.198;2022-12-29T01:03:12;61.40;;;40.43;;
75156;SDS011;63736;50.076;8.198;2022-12-29T01:05:37;61.20;;;39.90;;
75156;SDS011;63736;50.076;8.198;2022-12-29T01:08:03;63.70;;;40.70;;
75156;SDS011;63736;50.076;8.198;2022-12-29T01:10:28;60.17;;;39.50;;
75156;SDS011;63736;50.076;8.198;2022-12-29T01:12:54;56.33;;;38.07;;
75156;SDS011;63736;50.076;8.198;2022-12-29T01:15:19;51.63;;;36.27;;
75156;SDS011;63736;50.076;8.198;2022-12-29T01:17:45;51.13;;;36.17;;
75156;SDS011;63736;50.076;8.198;2022-12-29T01:20:10;48.60;;;35.53;;
75156;SDS011;63736;50.076;8.198;2022-12-29T01:22:36;42.50;;;31.98;;
75156;SDS011;63736;50.076;8.198;2022-12-29T01:25:02;42.50;;;32.47;;
75156;SDS011;63736;50.076;8.198;2022-12-29T01:27:28;41.58;;;31.88;;
75156;SDS011;63736;50.076;8.198;2022-12-29T01:29:53;41.80;;;32.13;;
75156;SDS011;63736;50.076;8.198;2022-12-29T01:32:18;45.33;;;33.80;;
75156;SDS011;63736;50.076;8.198;2022-12-29T01:34:44;40.50;;;31.53;;
75156;SDS011;63736;50.076;8.198;2022-12-29T01:37:09;41.43;;;31.23;;
75156;SDS011;63736;50.076;8.198;2022-12-29T01:39:34;39.77;;;30.33;;
75156;SDS011;63736;50.076;8.198;2022-12-29T01:41:59;35.57;;;27.07;;
75156;SDS011;63736;50.076;8.198;2022-12-29T01:47:16;42.03;;;31.30;;
75156;SDS011;63736;50.076;8.198;2022-12-29T01:49:47;37.77;;;28.43;;
75156;SDS011;63736;50.076;8.198;2022-12-29T01:52:13;36.10;;;27.30;;
75156;SDS011;63736;50.076;8.198;2022-12-29T01:54:46;31.43;;;25.87;;
75156;SDS011;63736;50.076;8.198;2022-12-29T01:57:16;34.53;;;27.50;;
75156;SDS011;63736;50.076;8.198;2022-12-29T01:59:53;31.70;;;26.10;;
75156;SDS011;63736;50.076;8.198;2022-12-29T02:02:38;36.08;;;28.85;;
75156;SDS011;63736;50.076;8.198;2022-12-29T02:05:13;33.60;;;27.40;;
75156;SDS011;63736;50.076;8.198;2022-12-29T02:07:50;34.25;;;27.70;;
75156;SDS011;63736;50.076;8.198;2022-12-29T02:10:17;31.77;;;26.05;;
75156;SDS011;63736;50.076;8.198;2022-12-29T02:12:45;35.03;;;27.57;;
75156;SDS011;63736;50.076;8.198;2022-12-29T02:15:11;32.15;;;25.67;;
75156;SDS011;63736;50.076;8.198;2022-12-29T02:17:47;32.72;;;23.77;;
75156;SDS011;63736;50.076;8.198;2022-12-29T02:20:30;35.10;;;27.10;;
75156;SDS011;63736;50.076;8.198;2022-12-29T02:23:23;35.42;;;28.35;;
75156;SDS011;63736;50.076;8.198;2022-12-29T02:26:12;37.35;;;28.83;;
75156;SDS011;63736;50.076;8.198;2022-12-29T02:29:17;36.15;;;29.30;;
75156;SDS011;63736;50.076;8.198;2022-12-29T02:32:01;38.08;;;30.08;;
75156;SDS011;63736;50.076;8.198;2022-12-29T02:37:20;34.17;;;27.05;;
75156;SDS011;63736;50.076;8.198;2022-12-29T02:40:25;35.38;;;27.35;;
75156;SDS011;63736;50.076;8.198;2022-12-29T02:43:02;35.55;;;28.38;;
75156;SDS011;63736;50.076;8.198;2022-12-29T02:45:44;32.17;;;27.05;;
75156;SDS011;63736;50.076;8.198;2022-12-29T02:48:21;33.67;;;25.67;;
75156;SDS011;63736;50.076;8.198;2022-12-29T02:50:57;29.27;;;22.88;;
75156;SDS011;63736;50.076;8.198;2022-12-29T02:53:26;29.05;;;23.90;;
75156;SDS011;63736;50.076;8.198;2022-12-29T02:56:13;28.15;;;23.70;;
75156;SDS011;63736;50.076;8.198;2022-12-29T02:58:39;27.80;;;23.40;;
75156;SDS011;63736;50.076;8.198;2022-12-29T03:01:15;26.53;;;21.80;;
75156;SDS011;63736;50.076;8.198;2022-12-29T03:09:34;28.73;;;24.15;;
75156;SDS011;63736;50.076;8.198;2022-12-29T03:12:11;27.17;;;22.00;;
75156;SDS011;63736;50.076;8.198;2022-12-29T03:14:59;25.30;;;20.92;;
75156;SDS011;63736;50.076;8.198;2022-12-29T03:17:51;28.40;;;23.80;;
75156;SDS011;63736;50.076;8.198;2022-12-29T03:20:23;20.92;;;17.70;;
75156;SDS011;63736;50.076;8.198;2022-12-29T03:22:51;21.10;;;15.02;;
75156;SDS011;63736;50.076;8.198;2022-12-29T03:25:26;25.17;;;16.33;;
75156;SDS011;63736;50.076;8.198;2022-12-29T03:27:57;20.92;;;14.75;;
75156;SDS011;63736;50.076;8.198;2022-12-29T03:30:26;24.00;;;14.65;;
75156;SDS011;63736;50.076;8.198;2022-12-29T03:32:55;22.13;;;13.85;;
75156;SDS011;63736;50.076;8.198;2022-12-29T03:35:25;26.33;;;15.77;;
75156;SDS011;63736;50.076;8.198;2022-12-29T03:38:00;25.90;;;16.83;;
75156;SDS011;63736;50.076;8.198;2022-12-29T03:40:33;24.52;;;15.68;;
75156;SDS011;63736;50.076;8.198;2022-12-29T03:42:59;22.90;;;14.82;;
75156;SDS011;63736;50.076;8.198;2022-12-29T03:45:26;27.50;;;14.85;;
75156;SDS011;63736;50.076;8.198;2022-12-29T03:47:51;36.40;;;20.07;;
75156;SDS011;63736;50.076;8.198;2022-12-29T03:50:18;35.33;;;18.48;;
75156;SDS011;63736;50.076;8.198;2022-12-29T03:52:43;30.83;;;17.50;;
75156;SDS011;63736;50.076;8.198;2022-12-29T03:55:09;30.87;;;19.17;;
75156;SDS011;63736;50.076;8.198;2022-12-29T03:57:34;28.83;;;18.10;;
75156;SDS011;63736;50.076;8.198;2022-12-29T03:59:59;26.37;;;18.47;;
75156;SDS011;63736;50.076;8.198;2022-12-29T04:02:25;24.50;;;17.67;;
75156;SDS011;63736;50.076;8.198;2022-12-29T04:04:50;23.37;;;16.70;;
75156;SDS011;63736;50.076;8.198;2022-12-29T04:07:15;20.90;;;14.97;;
75156;SDS011;63736;50.076;8.198;2022-12-29T04:09:40;18.73;;;14.17;;
75156;SDS011;63736;50.076;8.198;2022-12-29T04:12:06;26.60;;;18.03;;
75156;SDS011;63736;50.076;8.198;2022-12-29T04:14:31;21.80;;;16.63;;
75156;SDS011;63736;50.076;8.198;2022-12-29T04:16:56;20.53;;;15.37;;
75156;SDS011;63736;50.076;8.198;2022-12-29T04:19:22;31.70;;;21.90;;
75156;SDS011;63736;50.076;8.198;2022-12-29T04:21:47;24.70;;;16.90;;
75156;SDS011;63736;50.076;8.198;2022-12-29T04:24:12;25.93;;;17.20;;
75156;SDS011;63736;50.076;8.198;2022-12-29T04:26:38;24.42;;;16.23;;
75156;SDS011;63736;50.076;8.198;2022-12-29T04:29:03;25.80;;;17.00;;
75156;SDS011;63736;50.076;8.198;2022-12-29T04:31:28;25.73;;;16.93;;
75156;SDS011;63736;50.076;8.198;2022-12-29T04:33:53;37.10;;;21.20;;
75156;SDS011;63736;50.076;8.198;2022-12-29T04:36:19;34.17;;;18.30;;
75156;SDS011;63736;50.076;8.198;2022-12-29T04:38:44;19.47;;;13.70;;
75156;SDS011;63736;50.076;8.198;2022-12-29T04:41:09;20.23;;;12.13;;
75156;SDS011;63736;50.076;8.198;2022-12-29T04:43:35;19.77;;;12.03;;
75156;SDS011;63736;50.076;8.198;2022-12-29T04:46:00;21.85;;;14.23;;
75156;SDS011;63736;50.076;8.198;2022-12-29T04:48:25;16.70;;;11.40;;
75156;SDS011;63736;50.076;8.198;2022-12-29T04:50:50;16.67;;;10.20;;
75156;SDS011;63736;50.076;8.198;2022-12-29T04:53:16;17.87;;;11.20;;
75156;SDS011;63736;50.076;8.198;2022-12-29T04:55:42;17.55;;;11.70;;
75156;SDS011;63736;50.076;8.198;2022-12-29T04:58:08;19.73;;;12.67;;
75156;SDS011;63736;50.076;8.198;2022-12-29T05:00:33;21.47;;;15.67;;
75156;SDS011;63736;50.076;8.198;2022-12-29T05:02:58;55.00;;;36.70;;
75156;SDS011;63736;50.076;8.198;2022-12-29T05:05:24;69.83;;;41.93;;
75156;SDS011;63736;50.076;8.198;2022-12-29T05:07:49;80.95;;;45.13;;
75156;SDS011;63736;50.076;8.198;2022-12-29T05:10:15;67.80;;;41.47;;
75156;SDS011;63736;50.076;8.198;2022-12-29T05:12:40;67.47;;;41.73;;
75156;SDS011;63736;50.076;8.198;2022-12-29T05:15:06;62.60;;;39.80;;
75156;SDS011;63736;50.076;8.198;2022-12-29T05:17:34;71.33;;;43.00;;
75156;SDS011;63736;50.076;8.198;2022-12-29T05:19:59;73.07;;;43.33;;
75156;SDS011;63736;50.076;8.198;2022-12-29T05:22:24;79.93;;;45.33;;
75156;SDS011;63736;50.076;8.198;2022-12-29T05:24:50;85.13;;;46.40;;
75156;SDS011;63736;50.076;8.198;2022-12-29T05:27:15;87.93;;;47.17;;
75156;SDS011;63736;50.076;8.198;2022-12-29T05:29:40;80.20;;;45.53;;
75156;SDS011;63736;50.076;8.198;2022-12-29T05:32:06;75.80;;;44.10;;
75156;SDS011;63736;50.076;8.198;2022-12-29T05:34:31;73.80;;;43.42;;
75156;SDS011;63736;50.076;8.198;2022-12-29T05:36:56;71.47;;;42.67;;
75156;SDS011;63736;50.076;8.198;2022-12-29T05:39:22;67.67;;;41.60;;
75156;SDS011;63736;50.076;8.198;2022-12-29T05:41:47;69.93;;;41.53;;
75156;SDS011;63736;50.076;8.198;2022-12-29T05:44:13;69.87;;;42.33;;
75156;SDS011;63736;50.076;8.198;2022-12-29T05:46:38;79.00;;;44.43;;
75156;SDS011;63736;50.076;8.198;2022-12-29T05:49:04;81.77;;;45.73;;
75156;SDS011;63736;50.076;8.198;2022-12-29T05:51:29;83.78;;;45.70;;
75156;SDS011;63736;50.076;8.198;2022-12-29T05:53:55;81.87;;;46.03;;
75156;SDS011;63736;50.076;8.198;2022-12-29T05:56:20;88.90;;;47.23;;
75156;SDS011;63736;50.076;8.198;2022-12-29T05:58:45;81.90;;;45.45;;
75156;SDS011;63736;50.076;8.198;2022-12-29T06:01:11;84.33;;;45.40;;
75156;SDS011;63736;50.076;8.198;2022-12-29T06:03:36;77.60;;;43.90;;
75156;SDS011;63736;50.076;8.198;2022-12-29T06:06:01;71.77;;;43.03;;
75156;SDS011;63736;50.076;8.198;2022-12-29T06:08:27;64.33;;;40.53;;
75156;SDS011;63736;50.076;8.198;2022-12-29T06:10:52;67.50;;;41.97;;
75156;SDS011;63736;50.076;8.198;2022-12-29T06:13:17;72.13;;;42.93;;
75156;SDS011;63736;50.076;8.198;2022-12-29T06:15:43;69.00;;;41.72;;
75156;SDS011;63736;50.076;8.198;2022-12-29T06:18:08;66.70;;;41.37;;
75156;SDS011;63736;50.076;8.198;2022-12-29T06:20:33;65.93;;;41.20;;
75156;SDS011;63736;50.076;8.198;2022-12-29T06:22:59;64.40;;;40.87;;
75156;SDS011;63736;50.076;8.198;2022-12-29T06:25:24;63.33;;;40.27;;
75156;SDS011;63736;50.076;8.198;2022-12-29T06:27:49;59.53;;;39.13;;
75156;SDS011;63736;50.076;8.198;2022-12-29T06:30:14;54.00;;;36.90;;
75156;SDS011;63736;50.076;8.198;2022-12-29T06:32:41;53.38;;;37.20;;
75156;SDS011;63736;50.076;8.198;2022-12-29T06:35:06;52.60;;;37.13;;
75156;SDS011;63736;50.076;8.198;2022-12-29T06:37:32;51.83;;;36.65;;
75156;SDS011;63736;50.076;8.198;2022-12-29T06:39:57;48.27;;;34.60;;
75156;SDS011;63736;50.076;8.198;2022-12-29T06:42:23;53.00;;;36.87;;
75156;SDS011;63736;50.076;8.198;2022-12-29T06:44:48;49.63;;;35.00;;
75156;SDS011;63736;50.076;8.198;2022-12-29T06:47:14;45.37;;;33.30;;
75156;SDS011;63736;50.076;8.198;2022-12-29T06:49:39;41.73;;;32.40;;
75156;SDS011;63736;50.076;8.198;2022-12-29T06:52:04;43.20;;;32.03;;
75156;SDS011;63736;50.076;8.198;2022-12-29T06:54:33;38.03;;;28.80;;
75156;SDS011;63736;50.076;8.198;2022-12-29T06:56:58;39.13;;;28.67;;
75156;SDS011;63736;50.076;8.198;2022-12-29T06:59:23;37.47;;;28.97;;
75156;SDS011;63736;50.076;8.198;2022-12-29T07:01:49;35.15;;;27.23;;
75156;SDS011;63736;50.076;8.198;2022-12-29T07:04:15;37.15;;;28.63;;
75156;SDS011;63736;50.076;8.198;2022-12-29T07:06:40;41.83;;;30.97;;
75156;SDS011;63736;50.076;8.198;2022-12-29T07:09:06;44.63;;;31.93;;
75156;SDS011;63736;50.076;8.198;2022-12-29T07:11:32;40.50;;;30.30;;
75156;SDS011;63736;50.076;8.198;2022-12-29T07:13:58;37.47;;;28.00;;
75156;SDS011;63736;50.076;8.198;2022-12-29T07:16:24;37.50;;;27.85;;
75156;SDS011;63736;50.076;8.198;2022-12-29T07:18:49;37.73;;;28.63;;
75156;SDS011;63736;50.076;8.198;2022-12-29T07:21:14;37.03;;;26.70;;
75156;SDS011;63736;50.076;8.198;2022-12-29T07:23:39;34.10;;;26.17;;
75156;SDS011;63736;50.076;8.198;2022-12-29T07:26:06;30.53;;;22.33;;
75156;SDS011;63736;50.076;8.198;2022-12-29T07:28:34;25.40;;;18.45;;
75156;SDS011;63736;50.076;8.198;2022-12-29T07:31:00;27.48;;;17.20;;
75156;SDS011;63736;50.076;8.198;2022-12-29T07:33:28;20.90;;;12.20;;
75156;SDS011;63736;50.076;8.198;2022-12-29T07:35:54;19.60;;;9.90;;
75156;SDS011;63736;50.076;8.198;2022-12-29T07:38:19;19.67;;;10.50;;
75156;SDS011;63736;50.076;8.198;2022-12-29T07:40:44;18.30;;;7.63;;
75156;SDS011;63736;50.076;8.198;2022-12-29T07:43:10;19.30;;;9.27;;
75156;SDS011;63736;50.076;8.198;2022-12-29T07:45:35;19.43;;;9.07;;
75156;SDS011;63736;50.076;8.198;2022-12-29T07:48:00;16.53;;;7.73;;
75156;SDS011;63736;50.076;8.198;2022-12-29T07:50:27;19.17;;;8.20;;
75156;SDS011;63736;50.076;8.198;2022-12-29T07:52:52;15.97;;;7.13;;
75156;SDS011;63736;50.076;8.198;2022-12-29T07:55:18;16.27;;;7.10;;
75156;SDS011;63736;50.076;8.198;2022-12-29T07:57:43;16.65;;;7.75;;
75156;SDS011;63736;50.076;8.198;2022-12-29T08:00:09;14.93;;;7.40;;
75156;SDS011;63736;50.076;8.198;2022-12-29T08:02:35;16.50;;;7.83;;
75156;SDS011;63736;50.076;8.198;2022-12-29T08:05:00;17.85;;;8.82;;
75156;SDS011;63736;50.076;8.198;2022-12-29T08:07:26;16.07;;;8.33;;
75156;SDS011;63736;50.076;8.198;2022-12-29T08:09:51;12.93;;;6.10;;
75156;SDS011;63736;50.076;8.198;2022-12-29T08:12:17;14.17;;;7.00;;
75156;SDS011;63736;50.076;8.198;2022-12-29T08:14:42;15.67;;;8.10;;
75156;SDS011;63736;50.076;8.198;2022-12-29T08:17:08;16.10;;;7.90;;
75156;SDS011;63736;50.076;8.198;2022-12-29T08:19:33;23.07;;;7.70;;
75156;SDS011;63736;50.076;8.198;2022-12-29T08:21:58;14.30;;;5.97;;
75156;SDS011;63736;50.076;8.198;2022-12-29T08:24:24;14.53;;;6.80;;
75156;SDS011;63736;50.076;8.198;2022-12-29T08:26:49;13.93;;;6.87;;
75156;SDS011;63736;50.076;8.198;2022-12-29T08:29:14;15.67;;;8.10;;
75156;SDS011;63736;50.076;8.198;2022-12-29T08:31:39;14.53;;;6.27;;
75156;SDS011;63736;50.076;8.198;2022-12-29T08:34:05;14.27;;;6.80;;
75156;SDS011;63736;50.076;8.198;2022-12-29T08:36:30;14.52;;;7.35;;
75156;SDS011;63736;50.076;8.198;2022-12-29T08:38:56;17.27;;;7.57;;
75156;SDS011;63736;50.076;8.198;2022-12-29T08:41:21;19.07;;;6.80;;
75156;SDS011;63736;50.076;8.198;2022-12-29T08:43:47;13.20;;;5.72;;
75156;SDS011;63736;50.076;8.198;2022-12-29T08:46:13;14.13;;;6.00;;
75156;SDS011;63736;50.076;8.198;2022-12-29T08:48:38;13.27;;;5.90;;
75156;SDS011;63736;50.076;8.198;2022-12-29T08:51:04;14.57;;;5.67;;
75156;SDS011;63736;50.076;8.198;2022-12-29T08:53:29;13.40;;;5.67;;
75156;SDS011;63736;50.076;8.198;2022-12-29T08:55:55;11.63;;;5.50;;
75156;SDS011;63736;50.076;8.198;2022-12-29T08:58:24;14.48;;;6.57;;
75156;SDS011;63736;50.076;8.198;2022-12-29T09:00:52;16.98;;;6.70;;
75156;SDS011;63736;50.076;8.198;2022-12-29T09:03:22;14.90;;;6.57;;
75156;SDS011;63736;50.076;8.198;2022-12-29T09:05:48;14.27;;;6.17;;
75156;SDS011;63736;50.076;8.198;2022-12-29T09:08:15;13.65;;;5.70;;
75156;SDS011;63736;50.076;8.198;2022-12-29T09:10:40;13.45;;;5.70;;
75156;SDS011;63736;50.076;8.198;2022-12-29T09:13:06;13.23;;;5.57;;
75156;SDS011;63736;50.076;8.198;2022-12-29T09:15:31;12.37;;;5.83;;
75156;SDS011;63736;50.076;8.198;2022-12-29T09:17:56;14.83;;;6.23;;
75156;SDS011;63736;50.076;8.198;2022-12-29T09:20:21;16.87;;;8.83;;
75156;SDS011;63736;50.076;8.198;2022-12-29T09:22:47;16.10;;;10.63;;
75156;SDS011;63736;50.076;8.198;2022-12-29T09:25:13;26.65;;;19.27;;
75156;SDS011;63736;50.076;8.198;2022-12-29T09:27:39;34.80;;;25.40;;
75156;SDS011;63736;50.076;8.198;2022-12-29T09:30:06;49.83;;;34.70;;
75156;SDS011;63736;50.076;8.198;2022-12-29T09:32:33;19.83;;;13.43;;
75156;SDS011;63736;50.076;8.198;2022-12-29T09:34:58;22.50;;;15.77;;
75156;SDS011;63736;50.076;8.198;2022-12-29T09:37:24;32.43;;;22.53;;
75156;SDS011;63736;50.076;8.198;2022-12-29T09:39:49;23.50;;;15.60;;
75156;SDS011;63736;50.076;8.198;2022-12-29T09:47:35;39.88;;;28.40;;
75156;SDS011;63736;50.076;8.198;2022-12-29T09:50:03;35.47;;;23.17;;
75156;SDS011;63736;50.076;8.198;2022-12-29T09:52:39;26.05;;;18.85;;
75156;SDS011;63736;50.076;8.198;2022-12-29T09:55:10;32.17;;;22.88;;
75156;SDS011;63736;50.076;8.198;2022-12-29T09:57:42;31.35;;;21.17;;
75156;SDS011;63736;50.076;8.198;2022-12-29T10:00:16;32.50;;;20.60;;
75156;SDS011;63736;50.076;8.198;2022-12-29T10:02:52;31.63;;;19.37;;
75156;SDS011;63736;50.076;8.198;2022-12-29T10:05:29;26.40;;;18.08;;
75156;SDS011;63736;50.076;8.198;2022-12-29T10:10:53;26.63;;;15.13;;
75156;SDS011;63736;50.076;8.198;2022-12-29T10:13:26;21.15;;;11.43;;
75156;SDS011;63736;50.076;8.198;2022-12-29T10:16:02;22.33;;;13.43;;
75156;SDS011;63736;50.076;8.198;2022-12-29T10:18:52;22.08;;;13.52;;
75156;SDS011;63736;50.076;8.198;2022-12-29T10:21:40;22.40;;;14.95;;
75156;SDS011;63736;50.076;8.198;2022-12-29T10:24:21;22.95;;;16.45;;
75156;SDS011;63736;50.076;8.198;2022-12-29T10:26:47;27.83;;;21.27;;
75156;SDS011;63736;50.076;8.198;2022-12-29T10:29:18;33.57;;;24.83;;
75156;SDS011;63736;50.076;8.198;2022-12-29T10:32:29;11.00;;;3.95;;
75156;SDS011;63736;50.076;8.198;2022-12-29T10:34:47;9.32;;;3.70;;
75156;SDS011;63736;50.076;8.198;2022-12-29T10:40:26;8.35;;;3.10;;
75156;SDS011;63736;50.076;8.198;2022-12-29T10:42:57;10.27;;;3.50;;
75156;SDS011;63736;50.076;8.198;2022-12-29T10:45:24;9.68;;;2.88;;
75156;SDS011;63736;50.076;8.198;2022-12-29T10:47:56;10.52;;;4.20;;
75156;SDS011;63736;50.076;8.198;2022-12-29T10:50:26;10.52;;;3.08;;
75156;SDS011;63736;50.076;8.198;2022-12-29T10:52:54;10.77;;;3.78;;
75156;SDS011;63736;50.076;8.198;2022-12-29T10:55:24;52.57;;;35.53;;
75156;SDS011;63736;50.076;8.198;2022-12-29T10:57:55;17.50;;;10.98;;
75156;SDS011;63736;50.076;8.198;2022-12-29T11:00:24;22.42;;;15.70;;
75156;SDS011;63736;50.076;8.198;2022-12-29T11:02:53;35.33;;;25.20;;
75156;SDS011;63736;50.076;8.198;2022-12-29T11:08:35;73.32;;;42.75;;
75156;SDS011;63736;50.076;8.198;2022-12-29T11:11:04;74.97;;;43.83;;
75156;SDS011;63736;50.076;8.198;2022-12-29T11:13:32;63.13;;;40.17;;
75156;SDS011;63736;50.076;8.198;2022-12-29T11:16:01;84.72;;;46.05;;
75156;SDS011;63736;50.076;8.198;2022-12-29T11:18:38;94.88;;;49.90;;
75156;SDS011;63736;50.076;8.198;2022-12-29T11:21:09;91.15;;;47.38;;
75156;SDS011;63736;50.076;8.198;2022-12-29T11:24:26;79.05;;;45.40;;
75156;SDS011;63736;50.076;8.198;2022-12-29T11:26:53;69.00;;;42.70;;
75156;SDS011;63736;50.076;8.198;2022-12-29T11:31:53;44.25;;;32.50;;
75156;SDS011;63736;50.076;8.198;2022-12-29T11:34:31;42.55;;;31.17;;
75156;SDS011;63736;50.076;8.198;2022-12-29T11:37:00;43.40;;;31.20;;
75156;SDS011;63736;50.076;8.198;2022-12-29T11:42:12;35.22;;;27.00;;
75156;SDS011;63736;50.076;8.198;2022-12-29T11:44:45;34.85;;;24.40;;
75156;SDS011;63736;50.076;8.198;2022-12-29T11:47:20;36.10;;;25.20;;
75156;SDS011;63736;50.076;8.198;2022-12-29T11:49:51;32.45;;;24.85;;
75156;SDS011;63736;50.076;8.198;2022-12-29T11:52:26;29.27;;;20.73;;
75156;SDS011;63736;50.076;8.198;2022-12-29T11:54:54;23.83;;;17.58;;
75156;SDS011;63736;50.076;8.198;2022-12-29T11:57:20;62.33;;;38.97;;
75156;SDS011;63736;50.076;8.198;2022-12-29T11:59:49;44.33;;;30.52;;
75156;SDS011;63736;50.076;8.198;2022-12-29T12:04:45;46.70;;;31.73;;
75156;SDS011;63736;50.076;8.198;2022-12-29T12:07:12;44.30;;;29.50;;
75156;SDS011;63736;50.076;8.198;2022-12-29T12:09:45;31.67;;;22.23;;
75156;SDS011;63736;50.076;8.198;2022-12-29T12:12:21;52.28;;;35.47;;
75156;SDS011;63736;50.076;8.198;2022-12-29T12:14:51;74.43;;;43.57;;
75156;SDS011;63736;50.076;8.198;2022-12-29T12:17:29;55.72;;;37.38;;
75156;SDS011;63736;50.076;8.198;2022-12-29T12:20:19;51.35;;;35.10;;
75156;SDS011;63736;50.076;8.198;2022-12-29T12:22:53;58.08;;;36.85;;
75156;SDS011;63736;50.076;8.198;2022-12-29T12:25:40;59.70;;;38.65;;
75156;SDS011;63736;50.076;8.198;2022-12-29T12:28:37;52.13;;;34.93;;
75156;SDS011;63736;50.076;8.198;2022-12-29T12:31:26;67.80;;;37.58;;
75156;SDS011;63736;50.076;8.198;2022-12-29T12:39:45;54.92;;;38.08;;
75156;SDS011;63736;50.076;8.198;2022-12-29T12:56:15;55.70;;;36.50;;
75156;SDS011;63736;50.076;8.198;2022-12-29T12:58:56;52.72;;;35.47;;
75156;SDS011;63736;50.076;8.198;2022-12-29T13:01:34;48.33;;;34.17;;
75156;SDS011;63736;50.076;8.198;2022-12-29T13:04:26;52.50;;;35.72;;
75156;SDS011;63736;50.076;8.198;2022-12-29T13:07:04;52.78;;;37.20;;
75156;SDS011;63736;50.076;8.198;2022-12-29T13:12:55;52.38;;;35.08;;
75156;SDS011;63736;50.076;8.198;2022-12-29T13:15:33;49.72;;;34.97;;
75156;SDS011;63736;50.076;8.198;2022-12-29T13:18:30;48.35;;;34.55;;
75156;SDS011;63736;50.076;8.198;2022-12-29T13:21:11;49.80;;;34.90;;
75156;SDS011;63736;50.076;8.198;2022-12-29T13:23:44;47.77;;;33.87;;
75156;SDS011;63736;50.076;8.198;2022-12-29T13:26:33;55.58;;;33.42;;
75156;SDS011;63736;50.076;8.198;2022-12-29T13:37:26;39.37;;;29.43;;
75156;SDS011;63736;50.076;8.198;2022-12-29T13:39:55;37.60;;;27.40;;
75156;SDS011;63736;50.076;8.198;2022-12-29T13:42:24;35.50;;;26.25;;
75156;SDS011;63736;50.076;8.198;2022-12-29T13:44:54;34.00;;;21.58;;
75156;SDS011;63736;50.076;8.198;2022-12-29T13:50:31;37.90;;;27.47;;
75156;SDS011;63736;50.076;8.198;2022-12-29T13:53:13;36.28;;;25.27;;
75156;SDS011;63736;50.076;8.198;2022-12-29T13:55:40;36.47;;;26.13;;
75156;SDS011;63736;50.076;8.198;2022-12-29T14:03:46;40.90;;;30.90;;
75156;SDS011;63736;50.076;8.198;2022-12-29T14:06:24;39.70;;;30.48;;
75156;SDS011;63736;50.076;8.198;2022-12-29T14:08:52;41.25;;;30.98;;
75156;SDS011;63736;50.076;8.198;2022-12-29T14:11:24;42.45;;;31.70;;
75156;SDS011;63736;50.076;8.198;2022-12-29T14:13:56;44.97;;;31.67;;
75156;SDS011;63736;50.076;8.198;2022-12-29T14:16:31;54.57;;;36.50;;
75156;SDS011;63736;50.076;8.198;2022-12-29T14:19:32;59.72;;;38.03;;
75156;SDS011;63736;50.076;8.198;2022-12-29T14:21:56;85.25;;;47.10;;
75156;SDS011;63736;50.076;8.198;2022-12-29T14:32:46;84.57;;;46.90;;
75156;SDS011;63736;50.076;8.198;2022-12-29T14:34:56;99.15;;;49.40;;
75156;SDS011;63736;50.076;8.198;2022-12-29T14:42:47;83.40;;;46.67;;
75156;SDS011;63736;50.076;8.198;2022-12-29T14:47:49;76.70;;;44.23;;
75156;SDS011;63736;50.076;8.198;2022-12-29T14:53:02;77.47;;;43.78;;
75156;SDS011;63736;50.076;8.198;2022-12-29T14:58:06;74.20;;;43.17;;
75156;SDS011;63736;50.076;8.198;2022-12-29T15:00:41;71.13;;;42.92;;
75156;SDS011;63736;50.076;8.198;2022-12-29T15:05:48;93.03;;;47.03;;
75156;SDS011;63736;50.076;8.198;2022-12-29T15:08:28;113.60;;;53.00;;
75156;SDS011;63736;50.076;8.198;2022-12-29T15:10:58;107.27;;;51.30;;
75156;SDS011;63736;50.076;8.198;2022-12-29T15:13:35;101.53;;;50.30;;
75156;SDS011;63736;50.076;8.198;2022-12-29T15:16:05;115.65;;;53.47;;
75156;SDS011;63736;50.076;8.198;2022-12-29T15:18:46;107.70;;;51.58;;
75156;SDS011;63736;50.076;8.198;2022-12-29T15:21:12;79.10;;;44.77;;
75156;SDS011;63736;50.076;8.198;2022-12-29T15:23:40;87.22;;;47.75;;
75156;SDS011;63736;50.076;8.198;2022-12-29T15:26:09;109.83;;;51.93;;
75156;SDS011;63736;50.076;8.198;2022-12-29T15:28:36;116.57;;;52.95;;
75156;SDS011;63736;50.076;8.198;2022-12-29T15:31:04;126.30;;;56.53;;
75156;SDS011;63736;50.076;8.198;2022-12-29T15:33:38;165.55;;;62.03;;
75156;SDS011;63736;50.076;8.198;2022-12-29T15:36:09;148.80;;;59.60;;
75156;SDS011;63736;50.076;8.198;2022-12-29T15:38:37;157.67;;;61.47;;
75156;SDS011;63736;50.076;8.198;2022-12-29T15:41:05;168.82;;;64.22;;
75156;SDS011;63736;50.076;8.198;2022-12-29T15:46:33;180.75;;;65.68;;
75156;SDS011;63736;50.076;8.198;2022-12-29T15:48:59;164.63;;;63.43;;
75156;SDS011;63736;50.076;8.198;2022-12-29T15:51:29;162.93;;;63.60;;
75156;SDS011;63736;50.076;8.198;2022-12-29T15:53:58;159.83;;;61.70;;
75156;SDS011;63736;50.076;8.198;2022-12-29T15:56:24;159.07;;;64.15;;
75156;SDS011;63736;50.076;8.198;2022-12-29T15:58:53;156.88;;;62.70;;
75156;SDS011;63736;50.076;8.198;2022-12-29T16:03:47;159.38;;;62.58;;
75156;SDS011;63736;50.076;8.198;2022-12-29T16:06:30;164.77;;;63.10;;
75156;SDS011;63736;50.076;8.198;2022-12-29T16:09:05;157.13;;;61.27;;
75156;SDS011;63736;50.076;8.198;2022-12-29T16:11:33;152.95;;;60.47;;
75156;SDS011;63736;50.076;8.198;2022-12-29T16:14:01;144.70;;;59.40;;
75156;SDS011;63736;50.076;8.198;2022-12-29T16:16:38;143.60;;;60.00;;
75156;SDS011;63736;50.076;8.198;2022-12-29T16:19:10;140.65;;;58.42;;
75156;SDS011;63736;50.076;8.198;2022-12-29T16:21:40;133.67;;;56.90;;